createdAt,value
2017-10-29T00:01:07.386Z,13.30
2017-10-29T00:58:06.501Z,13.30
2017-10-29T01:00:35.185Z,13.30
2017-10-29T01:03:20.325Z,13.30
2017-10-29T01:05:49.959Z,13.30
2017-10-29T01:08:32.541Z,13.40
2017-10-29T01:11:20.190Z,13.40
2017-10-29T01:13:51.409Z,13.40
2017-10-29T01:16:20.139Z,13.40
2017-10-29T01:19:09.388Z,13.40
2017-10-29T01:21:48.461Z,13.30
2017-10-29T01:24:18.479Z,13.30
2017-10-29T01:26:47.520Z,13.30
2017-10-29T01:29:17.465Z,13.30
2017-10-29T01:31:47.965Z,13.30
2017-10-29T01:34:24.567Z,13.30
2017-10-29T01:39:48.265Z,13.40
2017-10-29T01:42:17.680Z,13.40
2017-10-29T01:44:47.071Z,13.40
2017-10-29T01:47:18.867Z,13.30
2017-10-29T01:49:48.443Z,13.30
2017-10-29T01:52:22.538Z,13.30
2017-10-29T01:54:51.927Z,13.20
2017-10-29T01:57:21.687Z,13.20
2017-10-29T01:59:51.993Z,13.20
2017-10-29T02:02:23.282Z,13.30
2017-10-29T02:04:55.358Z,13.30
2017-10-29T02:13:14.909Z,13.40
2017-10-29T02:15:44.104Z,13.50
2017-10-29T02:18:13.604Z,13.40
2017-10-29T02:20:42.430Z,13.50
2017-10-29T02:23:12.866Z,13.40
2017-10-29T02:25:41.749Z,13.40
2017-10-29T02:28:11.551Z,13.30
2017-10-29T02:30:41.293Z,13.30
2017-10-29T02:33:10.813Z,13.20
2017-10-29T02:35:39.985Z,13.20
2017-10-29T02:38:09.957Z,13.00
2017-10-29T02:40:39.772Z,13.00
2017-10-29T02:43:08.990Z,13.00
2017-10-29T02:45:39.193Z,12.90
2017-10-29T02:48:08.875Z,12.90
2017-10-29T02:50:38.038Z,13.00
2017-10-29T02:53:07.213Z,13.00
2017-10-29T02:55:37.511Z,13.00
2017-10-29T02:58:06.735Z,13.00
2017-10-29T03:00:35.921Z,13.10
2017-10-29T03:03:05.453Z,13.10
2017-10-29T03:05:34.631Z,13.20
2017-10-29T03:08:03.812Z,13.10
2017-10-29T03:10:34.504Z,13.20
2017-10-29T03:13:03.694Z,13.20
2017-10-29T03:15:32.887Z,13.20
2017-10-29T03:18:03.161Z,13.30
2017-10-29T03:20:33.820Z,13.30
2017-10-29T03:23:03.315Z,13.30
2017-10-29T03:25:32.799Z,13.30
2017-10-29T03:28:04.857Z,13.40
2017-10-29T03:30:38.427Z,13.30
2017-10-29T03:33:07.624Z,13.30
2017-10-29T03:35:38.107Z,13.20
2017-10-29T03:38:07.601Z,13.10
2017-10-29T03:40:36.833Z,13.10
2017-10-29T03:43:06.014Z,13.00
2017-10-29T03:45:35.342Z,13.00
2017-10-29T03:48:05.870Z,12.80
2017-10-29T03:50:36.262Z,12.70
2017-10-29T03:53:05.858Z,12.70
2017-10-29T03:55:35.777Z,12.70
2017-10-29T03:58:05.286Z,12.70
2017-10-29T04:00:34.473Z,12.60
2017-10-29T04:03:03.646Z,12.70
2017-10-29T04:05:34.244Z,12.00
2017-10-29T04:08:03.536Z,11.90
2017-10-29T04:10:32.712Z,11.60
2017-10-29T04:13:03.633Z,11.30
2017-10-29T04:15:38.469Z,11.20
2017-10-29T04:18:12.250Z,11.20
2017-10-29T04:20:42.334Z,11.20
2017-10-29T04:23:11.524Z,11.20
2017-10-29T04:25:48.203Z,11.20
2017-10-29T04:31:19.575Z,11.20
2017-10-29T04:36:38.613Z,11.20
2017-10-29T04:39:07.827Z,11.30
2017-10-29T04:41:36.678Z,11.30
2017-10-29T04:44:17.555Z,11.30
2017-10-29T04:46:50.285Z,11.30
2017-10-29T04:49:19.958Z,11.30
2017-10-29T04:52:01.784Z,11.40
2017-10-29T04:54:36.293Z,11.40
2017-10-29T04:57:05.175Z,11.40
2017-10-29T04:59:34.365Z,11.30
2017-10-29T05:02:03.546Z,11.20
2017-10-29T05:04:32.851Z,11.10
2017-10-29T05:07:02.805Z,11.10
2017-10-29T05:09:49.754Z,11.10
2017-10-29T05:12:18.958Z,11.10
2017-10-29T05:14:50.369Z,11.20
2017-10-29T05:17:19.629Z,11.20
2017-10-29T05:19:58.612Z,11.20
2017-10-29T05:22:35.065Z,11.10
2017-10-29T05:25:04.584Z,11.10
2017-10-29T05:27:33.422Z,11.10
2017-10-29T05:30:02.627Z,11.20
2017-10-29T05:32:32.124Z,11.10
2017-10-29T05:35:01.317Z,11.10
2017-10-29T05:37:49.905Z,11.10
2017-10-29T05:40:18.932Z,11.00
2017-10-29T05:45:36.087Z,10.90
2017-10-29T05:48:21.420Z,10.80
2017-10-29T05:50:52.913Z,10.80
2017-10-29T05:53:22.129Z,10.80
2017-10-29T05:55:51.745Z,10.80
2017-10-29T05:58:21.353Z,10.60
2017-10-29T06:00:50.190Z,10.60
2017-10-29T06:03:19.096Z,10.60
2017-10-29T06:05:48.266Z,10.70
2017-10-29T06:08:23.400Z,10.60
2017-10-29T06:10:56.421Z,10.50
2017-10-29T06:13:25.600Z,10.50
2017-10-29T06:15:54.762Z,10.60
2017-10-29T06:18:24.371Z,10.60
2017-10-29T06:20:53.234Z,10.60
2017-10-29T06:23:40.780Z,10.70
2017-10-29T06:26:10.009Z,10.80
2017-10-29T06:28:39.208Z,10.70
2017-10-29T06:31:08.740Z,10.60
2017-10-29T06:33:50.114Z,10.50
2017-10-29T06:36:19.310Z,10.40
2017-10-29T06:38:48.610Z,10.40
2017-10-29T06:41:18.569Z,10.40
2017-10-29T06:43:48.278Z,10.40
2017-10-29T06:46:17.490Z,10.50
2017-10-29T06:48:46.932Z,10.50
2017-10-29T06:51:22.907Z,10.40
2017-10-29T06:53:52.805Z,10.40
2017-10-29T06:56:25.855Z,10.30
2017-10-29T06:59:06.602Z,10.40
2017-10-29T07:01:35.925Z,10.40
2017-10-29T07:04:05.478Z,10.40
2017-10-29T07:06:34.661Z,10.40
2017-10-29T07:09:03.500Z,10.50
2017-10-29T07:11:32.328Z,10.40
2017-10-29T07:14:01.963Z,10.40
2017-10-29T07:16:32.714Z,10.30
2017-10-29T07:19:03.312Z,10.40
2017-10-29T07:21:32.161Z,10.40
2017-10-29T07:24:01.814Z,10.40
2017-10-29T07:26:31.031Z,10.40
2017-10-29T07:29:00.225Z,10.40
2017-10-29T07:31:29.668Z,10.30
2017-10-29T07:33:58.854Z,10.40
2017-10-29T07:36:27.692Z,10.40
2017-10-29T07:39:14.391Z,10.50
2017-10-29T07:41:43.184Z,10.50
2017-10-29T07:44:12.387Z,10.60
2017-10-29T07:46:41.617Z,10.50
2017-10-29T07:49:10.780Z,10.50
2017-10-29T07:51:39.965Z,10.40
2017-10-29T07:54:09.485Z,10.30
2017-10-29T07:56:39.429Z,10.30
2017-10-29T07:59:08.635Z,10.30
2017-10-29T08:01:39.013Z,10.40
2017-10-29T08:04:08.314Z,10.40
2017-10-29T08:06:38.431Z,10.50
2017-10-29T08:09:09.513Z,10.40
2017-10-29T08:11:38.389Z,10.40
2017-10-29T08:14:07.209Z,10.50
2017-10-29T08:16:36.740Z,10.60
2017-10-29T08:19:05.396Z,10.60
2017-10-29T08:21:34.623Z,10.70
2017-10-29T08:24:04.772Z,10.80
2017-10-29T08:26:34.791Z,10.90
2017-10-29T08:29:19.222Z,10.90
2017-10-29T08:31:52.239Z,11.10
2017-10-29T08:34:23.657Z,11.00
2017-10-29T08:36:52.842Z,11.00
2017-10-29T08:39:22.030Z,11.10
2017-10-29T08:41:54.083Z,11.10
2017-10-29T08:44:23.336Z,11.10
2017-10-29T08:46:52.524Z,11.10
2017-10-29T08:49:22.918Z,11.20
2017-10-29T08:51:52.190Z,11.20
2017-10-29T08:54:21.813Z,11.20
2017-10-29T08:56:52.929Z,11.10
2017-10-29T08:59:22.495Z,11.20
2017-10-29T09:01:51.697Z,11.20
2017-10-29T09:04:21.246Z,11.20
2017-10-29T09:06:51.972Z,11.40
2017-10-29T09:09:21.713Z,11.40
2017-10-29T09:11:50.718Z,11.60
2017-10-29T09:14:19.909Z,11.60
2017-10-29T09:16:49.732Z,11.60
2017-10-29T09:19:18.915Z,11.70
2017-10-29T09:21:48.376Z,11.70
2017-10-29T09:24:19.009Z,11.50
2017-10-29T09:26:48.467Z,11.50
2017-10-29T09:29:18.418Z,11.60
2017-10-29T09:31:48.432Z,11.60
2017-10-29T09:34:17.736Z,11.60
2017-10-29T09:36:47.694Z,11.90
2017-10-29T09:39:16.900Z,11.90
2017-10-29T09:41:49.500Z,12.00
2017-10-29T09:44:18.751Z,11.90
2017-10-29T09:46:51.246Z,11.90
2017-10-29T09:49:25.033Z,11.80
2017-10-29T09:51:55.520Z,11.80
2017-10-29T09:54:25.849Z,12.00
2017-10-29T09:56:55.016Z,12.00
2017-10-29T09:59:24.214Z,12.00
2017-10-29T10:01:53.757Z,11.90
2017-10-29T10:04:22.931Z,11.80
2017-10-29T10:06:52.119Z,11.70
2017-10-29T10:09:28.284Z,11.30
2017-10-29T10:11:58.249Z,10.60
2017-10-29T10:14:27.781Z,10.30
2017-10-29T10:16:57.958Z,10.10
2017-10-29T10:19:27.744Z,10.00
2017-10-29T10:22:02.173Z,10.00
2017-10-29T10:24:31.609Z,10.20
2017-10-29T10:27:00.784Z,10.40
2017-10-29T10:29:29.961Z,10.70
2017-10-29T10:32:00.244Z,11.30
2017-10-29T10:34:29.618Z,11.30
2017-10-29T10:37:19.918Z,11.40
2017-10-29T10:39:51.486Z,11.40
2017-10-29T10:42:21.775Z,11.60
2017-10-29T10:44:52.077Z,11.60
2017-10-29T10:47:21.328Z,11.70
2017-10-29T10:49:50.561Z,11.80
2017-10-29T10:52:20.333Z,11.70
2017-10-29T10:54:57.743Z,11.70
2017-10-29T10:57:28.810Z,11.40
2017-10-29T10:59:58.030Z,11.00
2017-10-29T11:02:27.221Z,10.60
2017-10-29T11:04:56.416Z,10.30
2017-10-29T11:07:26.157Z,10.10
2017-10-29T11:09:55.345Z,10.10
2017-10-29T11:12:24.547Z,10.50
2017-10-29T11:14:55.928Z,10.70
2017-10-29T11:17:25.146Z,11.00
2017-10-29T11:19:55.957Z,11.70
2017-10-29T11:22:25.901Z,12.10
2017-10-29T11:24:55.838Z,12.00
2017-10-29T11:27:25.478Z,12.20
2017-10-29T11:29:54.671Z,11.90
2017-10-29T11:32:29.031Z,11.40
2017-10-29T11:35:03.515Z,10.90
2017-10-29T11:37:33.052Z,10.60
2017-10-29T11:40:02.228Z,10.20
2017-10-29T11:42:42.877Z,9.60
2017-10-29T11:48:24.078Z,9.40
2017-10-29T11:50:53.253Z,9.30
2017-10-29T11:53:27.067Z,9.30
2017-10-29T11:55:57.100Z,9.60
2017-10-29T11:58:26.275Z,9.60
2017-10-29T12:00:55.723Z,9.70
2017-10-29T12:03:25.668Z,9.80
2017-10-29T12:05:55.019Z,9.80
2017-10-29T12:08:24.199Z,9.90
2017-10-29T12:10:53.202Z,10.10
2017-10-29T12:13:22.763Z,10.40
2017-10-29T12:15:52.849Z,10.60
2017-10-29T12:18:22.915Z,10.70
2017-10-29T12:20:52.644Z,10.90
2017-10-29T12:26:33.612Z,10.90
2017-10-29T12:29:04.095Z,10.80
2017-10-29T12:31:33.298Z,10.80
2017-10-29T12:34:02.272Z,10.70
2017-10-29T12:36:31.848Z,10.80
2017-10-29T12:39:03.436Z,11.00
2017-10-29T12:41:33.511Z,11.00
2017-10-29T12:44:02.725Z,10.70
2017-10-29T12:46:48.673Z,10.50
2017-10-29T12:49:21.063Z,9.90
2017-10-29T12:51:50.310Z,9.90
2017-10-29T12:54:19.493Z,9.80
2017-10-29T12:56:49.443Z,10.10
2017-10-29T12:59:19.020Z,10.00
2017-10-29T13:01:50.002Z,10.20
2017-10-29T13:04:20.484Z,10.60
2017-10-29T13:06:57.973Z,10.60
2017-10-29T13:09:28.100Z,10.80
2017-10-29T13:12:02.574Z,11.00
2017-10-29T13:14:34.643Z,11.00
2017-10-29T13:17:03.812Z,10.90
2017-10-29T13:19:33.105Z,10.80
2017-10-29T13:22:02.351Z,10.90
2017-10-29T13:24:36.111Z,11.10
2017-10-29T13:27:06.003Z,11.10
2017-10-29T13:29:35.198Z,11.00
2017-10-29T13:32:04.386Z,10.90
2017-10-29T13:34:34.056Z,11.00
2017-10-29T13:37:03.372Z,11.00
2017-10-29T13:39:32.542Z,11.10
2017-10-29T13:42:01.739Z,11.00
2017-10-29T13:44:31.820Z,11.00
2017-10-29T13:47:02.268Z,11.10
2017-10-29T13:49:33.394Z,11.20
2017-10-29T13:52:06.904Z,11.20
2017-10-29T13:54:36.309Z,11.30
2017-10-29T13:57:05.539Z,11.30
2017-10-29T13:59:35.742Z,11.30
2017-10-29T14:02:04.940Z,11.30
2017-10-29T14:04:35.755Z,11.30
2017-10-29T14:07:07.230Z,11.70
2017-10-29T14:09:37.482Z,11.60
2017-10-29T14:12:06.865Z,11.60
2017-10-29T14:14:36.055Z,11.60
2017-10-29T14:17:05.686Z,11.40
2017-10-29T14:19:34.861Z,11.20
2017-10-29T14:22:04.175Z,10.80
2017-10-29T14:24:33.738Z,10.40
2017-10-29T14:30:03.256Z,10.10
2017-10-29T14:32:49.793Z,10.10
2017-10-29T14:35:20.120Z,10.20
2017-10-29T14:37:49.307Z,10.30
2017-10-29T14:40:21.441Z,10.30
2017-10-29T14:42:50.790Z,10.40
2017-10-29T14:45:21.035Z,10.40
2017-10-29T14:47:51.593Z,10.60
2017-10-29T14:50:21.553Z,10.70
2017-10-29T14:52:51.502Z,10.70
2017-10-29T14:55:21.462Z,10.80
2017-10-29T14:57:50.662Z,10.80
2017-10-29T15:00:46.063Z,10.80
2017-10-29T15:03:17.018Z,10.90
2017-10-29T15:05:49.552Z,10.90
2017-10-29T15:08:18.926Z,10.80
2017-10-29T15:10:48.906Z,10.80
2017-10-29T15:13:18.103Z,10.80
2017-10-29T15:15:52.345Z,10.70
2017-10-29T15:18:21.526Z,10.70
2017-10-29T15:20:50.706Z,10.60
2017-10-29T15:26:20.360Z,10.60
2017-10-29T15:28:49.556Z,10.60
2017-10-29T15:31:21.203Z,10.60
2017-10-29T15:33:51.574Z,10.60
2017-10-29T15:36:51.242Z,10.60
2017-10-29T15:39:20.425Z,10.50
2017-10-29T15:41:53.027Z,10.40
2017-10-29T15:44:22.200Z,10.40
2017-10-29T15:46:52.194Z,10.30
2017-10-29T15:49:50.047Z,10.30
2017-10-29T15:52:19.314Z,10.20
2017-10-29T15:54:51.474Z,10.20
2017-10-29T16:03:16.090Z,10.10
2017-10-29T16:05:46.930Z,10.10
2017-10-29T16:08:22.439Z,10.00
2017-10-29T16:10:53.088Z,9.90
2017-10-29T16:13:30.448Z,9.90
2017-10-29T16:16:01.248Z,9.70
2017-10-29T16:18:30.423Z,9.70
2017-10-29T16:20:59.600Z,9.70
2017-10-29T16:23:29.549Z,9.50
2017-10-29T16:32:22.616Z,9.40
2017-10-29T16:38:00.240Z,9.30
2017-10-29T16:40:33.525Z,9.20
2017-10-29T16:43:05.690Z,9.20
2017-10-29T16:45:35.276Z,9.10
2017-10-29T16:48:20.925Z,9.10
2017-10-29T16:53:48.366Z,9.00
2017-10-29T16:56:18.597Z,9.00
2017-10-29T16:58:51.608Z,8.90
2017-10-29T17:01:20.793Z,8.90
2017-10-29T17:03:50.738Z,8.90
2017-10-29T17:06:21.034Z,8.80
2017-10-29T17:08:53.036Z,8.80
2017-10-29T17:11:25.643Z,8.70
2017-10-29T17:14:01.209Z,8.70
2017-10-29T17:16:30.917Z,8.70
2017-10-29T17:19:00.872Z,8.80
2017-10-29T17:21:30.044Z,8.80
2017-10-29T17:24:00.651Z,8.80
2017-10-29T17:26:29.813Z,8.80
2017-10-29T17:28:58.994Z,8.80
2017-10-29T17:31:29.009Z,8.70
2017-10-29T17:33:58.536Z,8.70
2017-10-29T17:36:27.788Z,8.60
2017-10-29T17:38:56.985Z,8.60
2017-10-29T17:41:37.361Z,8.40
2017-10-29T17:44:07.733Z,8.30
2017-10-29T17:46:37.900Z,8.30
2017-10-29T17:49:11.034Z,8.10
2017-10-29T17:51:42.967Z,8.00
2017-10-29T17:54:13.482Z,7.90
2017-10-29T17:56:42.667Z,7.90
2017-10-29T17:59:12.745Z,7.70
2017-10-29T18:01:42.384Z,7.70
2017-10-29T18:04:11.564Z,7.70
2017-10-29T18:06:40.735Z,7.60
2017-10-29T18:09:11.822Z,7.60
2017-10-29T18:14:29.882Z,7.40
2017-10-29T18:16:59.053Z,7.30
2017-10-29T18:19:29.010Z,7.20
2017-10-29T18:21:59.851Z,7.20
2017-10-29T18:24:29.854Z,7.10
2017-10-29T18:27:00.463Z,7.10
2017-10-29T18:29:29.805Z,7.00
2017-10-29T18:31:59.049Z,7.10
2017-10-29T18:34:28.543Z,7.00
2017-10-29T18:36:57.719Z,7.10
2017-10-29T18:39:49.766Z,7.10
2017-10-29T18:42:21.014Z,7.20
2017-10-29T18:44:51.680Z,7.20
2017-10-29T18:47:20.974Z,7.30
2017-10-29T18:52:48.300Z,7.40
2017-10-29T18:55:18.285Z,7.40
2017-10-29T19:00:37.535Z,7.40
2017-10-29T19:06:16.338Z,7.40
2017-10-29T19:08:52.447Z,7.30
2017-10-29T19:11:29.041Z,7.30
2017-10-29T19:13:58.750Z,7.30
2017-10-29T19:16:28.032Z,7.40
2017-10-29T19:19:19.290Z,7.40
2017-10-29T19:24:50.413Z,7.40
2017-10-29T19:27:50.053Z,7.40
2017-10-29T19:30:20.189Z,7.40
2017-10-29T19:32:50.401Z,7.40
2017-10-29T19:35:21.763Z,7.40
2017-10-29T19:38:20.495Z,7.40
2017-10-29T19:41:20.726Z,7.50
2017-10-29T19:43:50.050Z,7.50
2017-10-29T19:46:21.663Z,7.50
2017-10-29T19:49:20.379Z,7.50
2017-10-29T19:52:20.936Z,7.50
2017-10-29T19:55:18.979Z,7.50
2017-10-29T20:00:47.888Z,7.50
2017-10-29T20:03:17.262Z,7.40
2017-10-29T20:08:35.670Z,7.30
2017-10-29T20:11:05.068Z,7.30
2017-10-29T20:13:34.451Z,7.30
2017-10-29T20:16:04.205Z,7.30
2017-10-29T20:18:33.905Z,7.30
2017-10-29T20:21:03.303Z,7.40
2017-10-29T20:23:33.274Z,7.40
2017-10-29T20:26:02.496Z,7.40
2017-10-29T20:28:31.875Z,7.30
2017-10-29T20:31:01.539Z,7.30
2017-10-29T20:33:31.802Z,7.20
2017-10-29T20:36:02.162Z,7.10
2017-10-29T20:38:34.016Z,6.90
2017-10-29T20:44:21.077Z,6.70
2017-10-29T20:46:51.253Z,6.60
2017-10-29T20:49:20.737Z,6.60
2017-10-29T20:51:50.161Z,6.60
2017-10-29T20:54:21.407Z,6.60
2017-10-29T20:56:51.907Z,6.90
2017-10-29T20:59:21.523Z,6.80
2017-10-29T21:01:51.673Z,6.90
2017-10-29T21:04:21.983Z,7.00
2017-10-29T21:07:19.892Z,7.00
2017-10-29T21:09:50.530Z,7.20
2017-10-29T21:12:19.958Z,7.10
2017-10-29T21:14:49.544Z,7.20
2017-10-29T21:20:22.613Z,7.30
2017-10-29T21:29:19.011Z,6.90
2017-10-29T21:31:48.391Z,6.90
2017-10-29T21:37:03.057Z,6.90
2017-10-29T21:42:46.084Z,7.10
2017-10-29T21:45:16.220Z,7.30
2017-10-29T21:47:45.584Z,7.40
2017-10-29T21:50:15.743Z,7.40
2017-10-29T21:52:45.531Z,7.40
2017-10-29T21:55:15.711Z,7.20
2017-10-29T21:57:45.293Z,7.20
2017-10-29T22:00:15.468Z,7.00
2017-10-29T22:02:44.850Z,7.00
2017-10-29T22:05:14.249Z,6.90
2017-10-29T22:07:44.841Z,6.60
2017-10-29T22:10:14.221Z,6.60
2017-10-29T22:12:43.618Z,6.60
2017-10-29T22:15:14.020Z,6.50
2017-10-29T22:17:43.497Z,6.50
2017-10-29T22:20:13.731Z,6.60
2017-10-29T22:22:43.139Z,6.60
2017-10-29T22:25:12.518Z,6.60
2017-10-29T22:27:42.324Z,6.70
2017-10-29T22:30:11.742Z,6.80
2017-10-29T22:32:41.176Z,6.90
2017-10-29T22:35:10.882Z,7.00
2017-10-29T22:37:40.255Z,7.00
2017-10-29T22:40:09.680Z,7.10
2017-10-29T22:42:42.524Z,7.20
2017-10-29T22:45:12.681Z,7.20
2017-10-29T22:47:42.089Z,7.20
2017-10-29T22:50:11.472Z,7.30
2017-10-29T22:52:41.669Z,7.30
2017-10-29T22:55:11.076Z,7.30
2017-10-29T22:57:40.790Z,7.40
2017-10-29T23:00:10.165Z,7.40
2017-10-29T23:02:39.341Z,7.40
2017-10-29T23:05:12.143Z,7.40
2017-10-29T23:07:46.590Z,7.50
2017-10-29T23:10:16.006Z,7.50
2017-10-29T23:12:45.388Z,7.50
2017-10-29T23:15:14.761Z,7.50
2017-10-29T23:17:44.520Z,7.50
2017-10-29T23:20:13.918Z,7.60
2017-10-29T23:22:43.294Z,7.60
2017-10-29T23:25:13.576Z,7.60
2017-10-29T23:27:42.768Z,7.60
2017-10-29T23:30:12.188Z,7.60
2017-10-29T23:32:42.136Z,7.60
2017-10-29T23:35:11.529Z,7.50
2017-10-29T23:37:40.897Z,7.40
2017-10-29T23:40:10.903Z,7.30
2017-10-29T23:42:40.014Z,7.20
2017-10-29T23:45:09.410Z,7.10
2017-10-29T23:47:39.146Z,7.10
2017-10-29T23:50:10.427Z,7.00
2017-10-29T23:52:40.954Z,6.70
2017-10-29T23:55:10.474Z,6.70
2017-10-29T23:57:39.836Z,6.60
